createdAt,value
2022-08-31T00:00:33.516Z,14.30
2022-08-31T00:03:20.205Z,14.40
2022-08-31T00:05:48.437Z,14.40
2022-08-31T00:08:16.098Z,14.40
2022-08-31T00:10:46.546Z,14.50
2022-08-31T00:13:15.939Z,14.60
2022-08-31T00:15:46.173Z,14.60
2022-08-31T00:18:15.199Z,14.70
2022-08-31T00:20:44.078Z,14.70
2022-08-31T00:23:13.873Z,14.80
2022-08-31T00:25:44.517Z,14.70
2022-08-31T00:28:13.362Z,14.80
2022-08-31T00:30:41.839Z,14.80
2022-08-31T00:33:11.830Z,14.80
2022-08-31T00:35:44.093Z,14.80
2022-08-31T00:38:12.558Z,14.70
2022-08-31T00:40:44.955Z,14.70
2022-08-31T00:43:46.778Z,14.60
2022-08-31T00:46:18.906Z,14.50
2022-08-31T00:48:55.886Z,14.50
2022-08-31T00:51:24.471Z,14.40
2022-08-31T00:53:52.921Z,14.40
2022-08-31T00:56:22.001Z,14.30
2022-08-31T00:58:54.824Z,14.20
2022-08-31T01:01:23.833Z,14.30
2022-08-31T01:03:51.959Z,14.20
2022-08-31T01:06:20.150Z,14.20
2022-08-31T01:08:47.819Z,14.20
2022-08-31T01:11:16.371Z,14.20
2022-08-31T01:13:47.307Z,14.00
2022-08-31T01:16:22.769Z,13.90
2022-08-31T01:18:54.177Z,13.90
2022-08-31T01:21:24.965Z,13.90
2022-08-31T01:23:55.342Z,13.80
2022-08-31T01:26:26.640Z,13.80
2022-08-31T01:28:58.502Z,13.80
2022-08-31T01:31:33.187Z,13.80
2022-08-31T01:34:02.965Z,13.70
2022-08-31T01:36:32.567Z,13.70
2022-08-31T01:39:00.690Z,13.70
2022-08-31T01:41:28.587Z,13.60
2022-08-31T01:43:57.285Z,13.60
2022-08-31T01:46:25.892Z,13.60
2022-08-31T01:51:23.242Z,13.60
2022-08-31T01:53:54.036Z,13.60
2022-08-31T01:56:35.327Z,13.60
2022-08-31T01:59:08.520Z,14.80
2022-08-31T02:01:58.407Z,13.60
2022-08-31T02:04:28.962Z,13.70
2022-08-31T02:07:00.534Z,13.70
2022-08-31T02:09:29.996Z,13.70
2022-08-31T02:11:59.527Z,13.60
2022-08-31T02:14:27.276Z,13.50
2022-08-31T02:16:55.397Z,13.60
2022-08-31T02:19:23.074Z,10.50
2022-08-31T02:21:50.814Z,13.60
2022-08-31T02:24:18.665Z,13.60
2022-08-31T02:26:49.369Z,13.60
2022-08-31T02:29:19.826Z,13.60
2022-08-31T02:31:47.615Z,13.60
2022-08-31T02:34:17.373Z,13.60
2022-08-31T02:36:49.867Z,13.50
2022-08-31T02:41:46.358Z,13.50
2022-08-31T02:44:14.835Z,13.50
2022-08-31T02:46:42.944Z,13.50
2022-08-31T02:49:33.200Z,13.40
2022-08-31T02:52:01.405Z,13.40
2022-08-31T02:56:58.119Z,13.30
2022-08-31T02:59:25.886Z,13.30
2022-08-31T03:01:55.813Z,13.20
2022-08-31T03:04:23.918Z,13.20
2022-08-31T03:06:51.990Z,13.10
2022-08-31T03:09:19.570Z,13.10
2022-08-31T03:11:47.233Z,13.10
2022-08-31T03:14:15.056Z,13.00
2022-08-31T03:16:42.882Z,13.00
2022-08-31T03:19:10.967Z,13.00
2022-08-31T03:21:38.888Z,13.00
2022-08-31T03:24:07.334Z,13.00
2022-08-31T03:26:35.000Z,13.00
2022-08-31T03:29:02.996Z,12.90
2022-08-31T03:31:49.516Z,13.00
2022-08-31T03:34:17.441Z,12.90
2022-08-31T03:36:45.243Z,13.00
2022-08-31T03:39:13.333Z,13.00
2022-08-31T03:41:40.948Z,12.90
2022-08-31T03:44:08.950Z,12.90
2022-08-31T03:46:36.712Z,12.90
2022-08-31T03:51:36.005Z,12.90
2022-08-31T03:54:05.475Z,12.90
2022-08-31T03:56:33.854Z,13.00
2022-08-31T03:59:01.941Z,13.00
2022-08-31T04:01:48.172Z,13.00
2022-08-31T04:04:53.163Z,12.90
2022-08-31T04:10:30.711Z,12.90
2022-08-31T04:13:17.451Z,12.80
2022-08-31T04:16:16.767Z,12.80
2022-08-31T04:19:00.029Z,12.80
2022-08-31T04:21:31.284Z,12.80
2022-08-31T04:24:00.916Z,12.70
2022-08-31T04:26:33.084Z,12.70
2022-08-31T04:29:02.274Z,12.80
2022-08-31T04:31:30.652Z,12.70
2022-08-31T04:34:00.334Z,12.70
2022-08-31T04:36:29.445Z,17.00
2022-08-31T04:39:00.391Z,12.60
2022-08-31T04:41:30.088Z,12.70
2022-08-31T04:44:00.307Z,12.60
2022-08-31T04:46:29.733Z,12.60
2022-08-31T04:48:59.398Z,12.60
2022-08-31T04:51:35.624Z,12.50
2022-08-31T04:54:09.409Z,12.50
2022-08-31T04:56:41.163Z,12.40
2022-08-31T04:59:13.007Z,12.30
2022-08-31T05:04:42.239Z,12.20
2022-08-31T05:07:09.951Z,12.10
2022-08-31T05:09:37.857Z,12.10
2022-08-31T05:12:05.698Z,12.10
2022-08-31T05:14:35.466Z,12.10
2022-08-31T05:17:16.065Z,12.10
2022-08-31T05:19:44.267Z,12.10
2022-08-31T05:22:14.989Z,12.10
2022-08-31T05:24:45.691Z,12.10
2022-08-31T05:27:13.829Z,11.50
2022-08-31T05:29:42.299Z,12.00
2022-08-31T05:35:12.472Z,11.90
2022-08-31T05:37:42.671Z,11.90
2022-08-31T05:40:11.698Z,12.00
2022-08-31T05:42:39.567Z,12.00
2022-08-31T05:45:08.009Z,12.00
2022-08-31T05:47:36.903Z,12.00
2022-08-31T05:50:08.358Z,12.00
2022-08-31T05:52:38.437Z,12.10
2022-08-31T05:55:06.498Z,12.10
2022-08-31T05:57:34.215Z,12.10
2022-08-31T06:00:03.094Z,12.00
2022-08-31T06:02:42.514Z,12.00
2022-08-31T06:05:13.482Z,12.00
2022-08-31T06:07:42.489Z,12.00
2022-08-31T06:10:14.958Z,12.10
2022-08-31T06:12:44.962Z,12.00
2022-08-31T06:15:13.345Z,12.10
2022-08-31T06:17:41.562Z,12.10
2022-08-31T06:20:13.108Z,12.20
2022-08-31T06:22:46.778Z,12.20
2022-08-31T06:25:24.753Z,12.40
2022-08-31T06:27:55.353Z,12.40
2022-08-31T06:30:27.365Z,12.60
2022-08-31T06:32:58.701Z,12.80
2022-08-31T06:35:30.796Z,12.90
2022-08-31T06:38:25.590Z,12.90
2022-08-31T06:41:20.278Z,13.10
2022-08-31T06:44:26.819Z,13.30
2022-08-31T06:47:15.557Z,13.40
2022-08-31T06:49:43.252Z,13.40
2022-08-31T06:52:11.252Z,13.60
2022-08-31T06:54:41.752Z,13.70
2022-08-31T07:00:14.965Z,13.80
2022-08-31T07:02:53.186Z,14.00
2022-08-31T07:05:25.961Z,14.00
2022-08-31T07:07:54.912Z,14.10
2022-08-31T07:10:22.791Z,14.30
2022-08-31T07:12:50.568Z,14.40
2022-08-31T07:15:18.381Z,14.40
2022-08-31T07:17:46.456Z,14.60
2022-08-31T07:20:14.327Z,14.50
2022-08-31T07:22:42.141Z,14.70
2022-08-31T07:25:45.610Z,14.80
2022-08-31T07:28:13.516Z,14.90
2022-08-31T07:30:42.336Z,14.90
2022-08-31T07:33:12.608Z,16.50
2022-08-31T07:39:00.376Z,15.10
2022-08-31T07:41:48.091Z,15.10
2022-08-31T07:44:18.657Z,15.20
2022-08-31T07:46:48.301Z,15.30
2022-08-31T07:49:18.960Z,15.40
2022-08-31T07:52:06.347Z,15.50
2022-08-31T07:54:53.558Z,15.50
2022-08-31T07:57:35.396Z,15.80
2022-08-31T08:00:09.303Z,15.80
2022-08-31T08:02:53.219Z,16.00
2022-08-31T08:05:28.747Z,16.20
2022-08-31T08:08:29.123Z,16.30
2022-08-31T08:11:22.937Z,16.40
2022-08-31T08:14:14.454Z,16.60
2022-08-31T08:16:55.553Z,16.60
2022-08-31T08:19:35.688Z,16.70
2022-08-31T08:22:04.698Z,16.90
2022-08-31T08:24:46.922Z,16.90
2022-08-31T08:27:33.766Z,17.00
2022-08-31T08:30:22.784Z,17.00
2022-08-31T08:32:50.340Z,17.00
2022-08-31T08:35:18.000Z,17.00
2022-08-31T08:37:58.584Z,17.10
2022-08-31T08:40:44.481Z,17.20
2022-08-31T08:43:18.177Z,17.20
2022-08-31T08:45:50.464Z,17.20
2022-08-31T08:48:27.019Z,17.20
2022-08-31T08:50:54.929Z,17.40
2022-08-31T08:53:34.353Z,17.50
2022-08-31T08:56:32.822Z,17.60
2022-08-31T08:59:02.448Z,17.80
2022-08-31T09:01:37.545Z,17.90
2022-08-31T09:04:22.038Z,18.00
2022-08-31T09:07:31.395Z,18.00
2022-08-31T09:10:39.255Z,18.20
2022-08-31T09:13:20.403Z,18.30
2022-08-31T09:16:14.427Z,18.40
2022-08-31T09:18:56.810Z,18.50
2022-08-31T09:21:28.934Z,18.50
2022-08-31T09:24:21.864Z,18.50
2022-08-31T09:27:18.565Z,18.60
2022-08-31T09:29:58.939Z,18.60
2022-08-31T09:32:35.919Z,18.70
2022-08-31T09:35:22.286Z,18.80
2022-08-31T09:38:07.836Z,18.80
2022-08-31T09:40:45.503Z,18.90
2022-08-31T09:43:25.047Z,18.90
2022-08-31T09:46:07.481Z,18.80
2022-08-31T09:48:56.107Z,18.90
2022-08-31T09:51:30.125Z,18.90
2022-08-31T09:54:26.398Z,19.10
2022-08-31T09:56:57.247Z,19.00
2022-08-31T09:59:37.568Z,19.10
2022-08-31T10:02:28.658Z,19.10
2022-08-31T10:05:03.933Z,19.00
2022-08-31T10:07:51.416Z,19.00
2022-08-31T10:10:33.386Z,19.00
2022-08-31T10:13:04.247Z,19.30
2022-08-31T10:15:50.882Z,19.40
2022-08-31T10:18:46.363Z,19.20
2022-08-31T10:21:21.515Z,19.20
2022-08-31T10:24:01.554Z,19.30
2022-08-31T10:26:47.137Z,19.40
2022-08-31T10:29:40.319Z,19.50
2022-08-31T10:32:23.934Z,19.60
2022-08-31T10:35:19.408Z,19.60
2022-08-31T10:38:19.949Z,19.90
2022-08-31T10:41:17.006Z,19.90
2022-08-31T10:44:24.197Z,19.90
2022-08-31T10:46:54.534Z,19.90
2022-08-31T10:49:22.848Z,20.20
2022-08-31T10:52:06.359Z,20.40
2022-08-31T10:55:06.650Z,20.40
2022-08-31T10:58:03.602Z,20.80
2022-08-31T11:00:56.386Z,20.80
2022-08-31T11:03:45.992Z,20.80
2022-08-31T11:06:36.175Z,20.70
2022-08-31T11:09:23.676Z,20.80
2022-08-31T11:12:03.881Z,20.90
2022-08-31T11:14:37.360Z,21.10
2022-08-31T11:17:32.266Z,21.30
2022-08-31T11:20:20.737Z,21.50
2022-08-31T11:22:48.476Z,21.50
2022-08-31T11:25:43.161Z,21.50
2022-08-31T11:28:29.130Z,21.40
2022-08-31T11:30:57.192Z,21.10
2022-08-31T11:33:28.334Z,19.70
2022-08-31T11:36:08.954Z,20.90
2022-08-31T11:39:01.876Z,21.00
2022-08-31T11:41:43.675Z,21.10
2022-08-31T11:44:39.402Z,21.10
2022-08-31T11:47:28.108Z,21.50
2022-08-31T11:50:04.802Z,21.90
2022-08-31T11:52:43.923Z,22.00
2022-08-31T11:55:29.333Z,22.30
2022-08-31T11:58:06.350Z,22.30
2022-08-31T12:00:52.291Z,22.50
2022-08-31T12:03:39.045Z,22.70
2022-08-31T12:06:33.920Z,23.00
2022-08-31T12:09:24.043Z,23.50
2022-08-31T12:12:21.854Z,23.60
2022-08-31T12:14:56.887Z,24.00
2022-08-31T12:18:02.270Z,24.30
2022-08-31T12:21:06.785Z,24.30
2022-08-31T12:23:46.486Z,24.50
2022-08-31T12:26:44.890Z,24.70
2022-08-31T12:29:22.009Z,25.10
2022-08-31T12:32:20.472Z,25.10
2022-08-31T12:34:50.856Z,25.40
2022-08-31T12:37:26.874Z,25.60
2022-08-31T12:40:07.235Z,25.80
2022-08-31T12:42:39.246Z,25.70
2022-08-31T12:45:10.540Z,25.20
2022-08-31T12:48:21.457Z,24.70
2022-08-31T12:51:19.472Z,24.30
2022-08-31T12:53:52.937Z,24.40
2022-08-31T12:56:36.701Z,24.00
2022-08-31T12:59:45.733Z,23.80
2022-08-31T13:02:16.955Z,24.00
2022-08-31T13:04:47.054Z,24.40
2022-08-31T13:07:23.069Z,24.40
2022-08-31T13:10:08.468Z,24.80
2022-08-31T13:12:38.188Z,25.20
2022-08-31T13:15:14.296Z,25.30
2022-08-31T13:17:42.230Z,25.40
2022-08-31T13:20:10.051Z,25.40
2022-08-31T13:22:44.769Z,25.30
2022-08-31T13:25:25.792Z,25.10
2022-08-31T13:27:53.688Z,25.20
2022-08-31T13:30:25.562Z,25.80
2022-08-31T13:32:54.895Z,26.00
2022-08-31T13:35:35.732Z,26.00
2022-08-31T13:38:05.871Z,26.10
2022-08-31T13:40:39.672Z,25.60
2022-08-31T13:43:10.552Z,25.60
2022-08-31T13:45:58.614Z,25.20
2022-08-31T13:48:30.028Z,25.10
2022-08-31T13:51:18.883Z,25.30
2022-08-31T13:54:06.226Z,25.30
2022-08-31T13:56:59.065Z,25.80
2022-08-31T13:59:34.547Z,26.60
2022-08-31T14:02:16.335Z,26.50
2022-08-31T14:04:44.420Z,26.00
2022-08-31T14:07:39.477Z,24.90
2022-08-31T14:10:15.934Z,24.70
2022-08-31T14:12:55.115Z,24.30
2022-08-31T14:15:49.050Z,24.30
2022-08-31T14:18:26.118Z,24.20
2022-08-31T14:21:23.708Z,24.50
2022-08-31T14:23:53.284Z,25.20
2022-08-31T14:26:26.661Z,25.80
2022-08-31T14:28:58.540Z,26.10
2022-08-31T14:31:31.284Z,27.10
2022-08-31T14:34:23.790Z,27.50
2022-08-31T14:37:11.510Z,28.20
2022-08-31T14:39:46.213Z,28.20
2022-08-31T14:42:30.335Z,28.20
2022-08-31T14:45:04.448Z,28.10
2022-08-31T14:47:36.188Z,28.10
2022-08-31T14:50:08.242Z,27.60
2022-08-31T14:52:44.701Z,27.10
2022-08-31T14:55:14.349Z,27.10
2022-08-31T14:57:45.594Z,26.60
2022-08-31T15:00:23.043Z,26.40
2022-08-31T15:02:54.210Z,27.10
2022-08-31T15:05:24.591Z,27.10
2022-08-31T15:07:54.022Z,27.30
2022-08-31T15:10:27.084Z,27.10
2022-08-31T15:12:55.375Z,26.50
2022-08-31T15:15:23.162Z,25.80
2022-08-31T15:17:51.940Z,25.30
2022-08-31T15:20:22.895Z,25.30
2022-08-31T15:22:51.119Z,25.50
2022-08-31T15:25:22.416Z,25.80
2022-08-31T15:27:51.751Z,26.30
2022-08-31T15:30:20.271Z,26.90
2022-08-31T15:32:48.910Z,27.30
2022-08-31T15:35:20.407Z,27.80
2022-08-31T15:37:52.363Z,27.80
2022-08-31T15:40:21.674Z,28.40
2022-08-31T15:42:50.310Z,28.70
2022-08-31T15:45:18.199Z,28.60
2022-08-31T15:48:04.413Z,29.10
2022-08-31T15:50:32.705Z,29.30
2022-08-31T15:53:08.979Z,29.40
2022-08-31T15:55:41.073Z,29.50
2022-08-31T15:58:09.912Z,29.70
2022-08-31T16:00:42.327Z,29.80
2022-08-31T16:03:10.506Z,30.00
2022-08-31T16:05:43.599Z,29.60
2022-08-31T16:08:13.366Z,28.90
2022-08-31T16:10:47.113Z,27.80
2022-08-31T16:13:16.376Z,26.80
2022-08-31T16:15:51.398Z,26.00
2022-08-31T16:18:22.027Z,22.50
2022-08-31T16:20:50.705Z,24.70
2022-08-31T16:23:18.842Z,24.70
2022-08-31T16:25:49.265Z,25.20
2022-08-31T16:28:19.891Z,25.90
2022-08-31T16:30:48.090Z,26.40
2022-08-31T16:33:15.836Z,26.80
2022-08-31T16:35:45.958Z,27.40
2022-08-31T16:38:14.647Z,27.90
2022-08-31T16:40:43.059Z,28.50
2022-08-31T16:43:11.772Z,29.10
2022-08-31T16:45:41.175Z,29.40
2022-08-31T16:48:29.876Z,29.80
2022-08-31T16:51:02.311Z,29.90
2022-08-31T16:53:31.226Z,29.80
2022-08-31T16:56:00.058Z,29.70
2022-08-31T17:01:22.126Z,29.70
2022-08-31T17:03:56.293Z,29.70
2022-08-31T17:06:30.121Z,29.40
2022-08-31T17:09:00.297Z,28.60
2022-08-31T17:11:35.807Z,28.20
2022-08-31T17:14:07.847Z,28.10
2022-08-31T17:16:38.617Z,28.50
2022-08-31T17:19:10.841Z,28.90
2022-08-31T17:21:50.507Z,29.20
2022-08-31T17:24:24.522Z,29.30
2022-08-31T17:26:54.941Z,29.40
2022-08-31T17:29:23.636Z,29.50
2022-08-31T17:31:51.614Z,29.80
2022-08-31T17:34:22.495Z,29.80
2022-08-31T17:36:51.500Z,29.50
2022-08-31T17:39:20.689Z,29.20
2022-08-31T17:41:49.451Z,28.50
2022-08-31T17:44:19.890Z,28.70
2022-08-31T17:46:50.067Z,28.30
2022-08-31T17:49:20.761Z,27.70
2022-08-31T17:51:50.043Z,25.90
2022-08-31T17:54:20.532Z,25.00
2022-08-31T17:56:53.574Z,24.20
2022-08-31T17:59:28.362Z,24.10
2022-08-31T18:01:59.039Z,22.90
2022-08-31T18:04:28.684Z,22.80
2022-08-31T18:06:57.882Z,23.00
2022-08-31T18:09:28.978Z,23.00
2022-08-31T18:11:57.962Z,22.60
2022-08-31T18:14:28.210Z,22.20
2022-08-31T18:16:58.936Z,22.10
2022-08-31T18:19:28.217Z,21.80
2022-08-31T18:21:57.249Z,21.10
2022-08-31T18:24:25.369Z,20.80
2022-08-31T18:26:54.185Z,20.70
2022-08-31T18:29:24.891Z,20.40
2022-08-31T18:31:55.726Z,20.10
2022-08-31T18:34:25.689Z,20.00
2022-08-31T18:36:55.450Z,19.90
2022-08-31T18:39:48.089Z,19.70
2022-08-31T18:45:15.626Z,19.30
2022-08-31T18:47:49.589Z,19.30
2022-08-31T18:50:33.825Z,19.00
2022-08-31T18:53:08.326Z,19.00
2022-08-31T18:55:40.921Z,18.80
2022-08-31T18:58:08.851Z,18.80
2022-08-31T19:00:37.145Z,18.70
2022-08-31T19:03:05.032Z,18.60
2022-08-31T19:05:33.070Z,18.50
2022-08-31T19:08:00.851Z,18.30
2022-08-31T19:10:28.719Z,18.20
2022-08-31T19:12:57.181Z,18.10
2022-08-31T19:15:35.907Z,18.10
2022-08-31T19:18:05.679Z,18.00
2022-08-31T19:20:35.646Z,18.00
2022-08-31T19:23:03.587Z,17.80
2022-08-31T19:25:33.891Z,17.70
2022-08-31T19:28:07.718Z,17.50
2022-08-31T19:30:37.221Z,17.60
2022-08-31T19:33:09.755Z,17.50
2022-08-31T19:35:38.435Z,17.50
2022-08-31T19:38:06.175Z,17.40
2022-08-31T19:40:39.502Z,17.40
2022-08-31T19:45:55.367Z,17.30
2022-08-31T19:48:25.698Z,17.30
2022-08-31T19:53:23.022Z,17.30
2022-08-31T19:55:53.653Z,17.30
2022-08-31T19:58:26.718Z,17.30
2022-08-31T20:01:02.169Z,17.30
2022-08-31T20:03:31.947Z,17.20
2022-08-31T20:06:06.719Z,17.20
2022-08-31T20:08:35.822Z,17.20
2022-08-31T20:13:29.483Z,17.00
2022-08-31T20:15:58.055Z,17.00
2022-08-31T20:18:28.178Z,16.90
2022-08-31T20:20:56.933Z,16.90
2022-08-31T20:23:24.691Z,16.80
2022-08-31T20:25:53.368Z,16.80
2022-08-31T20:28:25.593Z,16.70
2022-08-31T20:30:58.218Z,16.70
2022-08-31T20:33:27.499Z,16.60
2022-08-31T20:35:55.363Z,16.70
2022-08-31T20:38:24.048Z,16.60
2022-08-31T20:40:52.425Z,16.50
2022-08-31T20:43:21.775Z,16.60
2022-08-31T20:45:50.110Z,16.50
2022-08-31T20:48:36.207Z,16.50
2022-08-31T20:51:20.204Z,16.30
2022-08-31T20:53:49.037Z,16.30
2022-08-31T20:56:18.336Z,16.20
2022-08-31T20:58:47.031Z,16.30
2022-08-31T21:01:16.141Z,16.20
2022-08-31T21:03:44.074Z,16.10
2022-08-31T21:06:13.082Z,16.10
2022-08-31T21:08:42.700Z,16.10
2022-08-31T21:11:16.400Z,16.10
2022-08-31T21:13:45.661Z,16.10
2022-08-31T21:16:14.973Z,16.00
2022-08-31T21:18:42.796Z,16.00
2022-08-31T21:21:16.576Z,16.00
2022-08-31T21:23:48.226Z,15.90
2022-08-31T21:26:26.025Z,15.90
2022-08-31T21:28:56.720Z,15.80
2022-08-31T21:31:28.788Z,15.90
2022-08-31T21:34:00.164Z,15.80
2022-08-31T21:36:29.685Z,15.80
2022-08-31T21:39:00.751Z,15.50
2022-08-31T21:41:29.454Z,15.70
2022-08-31T21:43:57.774Z,15.70
2022-08-31T21:46:27.978Z,15.40
2022-08-31T21:48:57.616Z,15.60
2022-08-31T21:51:33.003Z,15.60
2022-08-31T21:54:08.061Z,15.50
2022-08-31T21:56:45.722Z,15.50
2022-08-31T21:59:16.516Z,15.50
2022-08-31T22:01:45.299Z,15.40
2022-08-31T22:04:16.368Z,15.40
2022-08-31T22:06:44.617Z,15.30
2022-08-31T22:09:17.613Z,15.20
2022-08-31T22:11:50.815Z,15.30
2022-08-31T22:14:20.555Z,15.20
2022-08-31T22:16:50.649Z,15.10
2022-08-31T22:19:20.992Z,15.10
2022-08-31T22:21:52.840Z,15.10
2022-08-31T22:24:28.149Z,15.10
2022-08-31T22:26:59.439Z,15.10
2022-08-31T22:29:31.705Z,15.10
2022-08-31T22:32:03.217Z,15.10
2022-08-31T22:34:31.122Z,15.00
2022-08-31T22:36:58.877Z,15.00
2022-08-31T22:39:28.518Z,15.00
2022-08-31T22:41:57.945Z,15.00
2022-08-31T22:44:27.528Z,14.90
2022-08-31T22:46:58.397Z,14.90
2022-08-31T22:49:27.128Z,14.90
2022-08-31T22:51:55.430Z,14.80
2022-08-31T22:54:24.270Z,14.70
2022-08-31T22:56:52.259Z,14.80
2022-08-31T22:59:26.160Z,14.80
2022-08-31T23:01:57.026Z,14.70
2022-08-31T23:04:26.608Z,14.70
2022-08-31T23:06:57.477Z,14.70
2022-08-31T23:09:28.301Z,14.60
2022-08-31T23:11:57.915Z,14.50
2022-08-31T23:14:26.263Z,14.60
2022-08-31T23:16:57.886Z,14.50
2022-08-31T23:19:33.090Z,14.50
2022-08-31T23:22:02.031Z,14.50
2022-08-31T23:24:34.410Z,14.50
2022-08-31T23:27:05.052Z,14.40
2022-08-31T23:29:40.017Z,14.40
2022-08-31T23:32:12.300Z,14.30
2022-08-31T23:34:41.830Z,14.30
2022-08-31T23:37:11.216Z,14.20
2022-08-31T23:39:41.502Z,14.20
2022-08-31T23:42:11.963Z,14.20
2022-08-31T23:44:45.907Z,14.00
2022-08-31T23:47:23.773Z,14.10
2022-08-31T23:49:54.558Z,14.00
2022-08-31T23:52:28.267Z,14.00
2022-08-31T23:54:58.392Z,14.00
